sensor_id;sensor_type;location;lat;lon;timestamp;P1;durP1;ratioP1;P2;durP2;ratioP2
1935;SDS011;969;49.892;10.896;2023-12-20T00:00:57;6.27;;;4.83;;
1935;SDS011;969;49.892;10.896;2023-12-20T00:03:22;7.80;;;5.30;;
1935;SDS011;969;49.892;10.896;2023-12-20T00:05:49;6.63;;;5.13;;
1935;SDS011;969;49.892;10.896;2023-12-20T00:08:15;6.90;;;5.17;;
1935;SDS011;969;49.892;10.896;2023-12-20T00:10:40;9.23;;;5.33;;
1935;SDS011;969;49.892;10.896;2023-12-20T00:13:06;7.40;;;5.60;;
1935;SDS011;969;49.892;10.896;2023-12-20T00:15:33;9.17;;;5.50;;
1935;SDS011;969;49.892;10.896;2023-12-20T00:17:59;10.33;;;6.20;;
1935;SDS011;969;49.892;10.896;2023-12-20T00:20:24;8.60;;;5.73;;
1935;SDS011;969;49.892;10.896;2023-12-20T00:22:50;9.47;;;6.40;;
1935;SDS011;969;49.892;10.896;2023-12-20T00:25:15;7.30;;;5.40;;
1935;SDS011;969;49.892;10.896;2023-12-20T00:27:41;6.50;;;4.90;;
1935;SDS011;969;49.892;10.896;2023-12-20T00:30:07;7.90;;;5.03;;
1935;SDS011;969;49.892;10.896;2023-12-20T00:32:34;7.00;;;4.80;;
1935;SDS011;969;49.892;10.896;2023-12-20T00:35:00;6.07;;;4.97;;
1935;SDS011;969;49.892;10.896;2023-12-20T00:37:26;8.17;;;5.43;;
1935;SDS011;969;49.892;10.896;2023-12-20T00:39:51;8.87;;;5.83;;
1935;SDS011;969;49.892;10.896;2023-12-20T00:42:17;7.30;;;5.30;;
1935;SDS011;969;49.892;10.896;2023-12-20T00:44:43;8.27;;;5.70;;
1935;SDS011;969;49.892;10.896;2023-12-20T00:47:08;9.00;;;5.00;;
1935;SDS011;969;49.892;10.896;2023-12-20T00:49:34;9.40;;;5.40;;
1935;SDS011;969;49.892;10.896;2023-12-20T00:51:59;8.20;;;6.00;;
1935;SDS011;969;49.892;10.896;2023-12-20T00:54:25;9.20;;;5.40;;
1935;SDS011;969;49.892;10.896;2023-12-20T00:56:50;8.30;;;5.67;;
1935;SDS011;969;49.892;10.896;2023-12-20T00:59:16;6.70;;;6.03;;
1935;SDS011;969;49.892;10.896;2023-12-20T01:01:43;6.13;;;4.80;;
1935;SDS011;969;49.892;10.896;2023-12-20T01:04:08;6.53;;;4.63;;
1935;SDS011;969;49.892;10.896;2023-12-20T01:06:34;6.67;;;5.30;;
1935;SDS011;969;49.892;10.896;2023-12-20T01:08:59;7.30;;;5.40;;
1935;SDS011;969;49.892;10.896;2023-12-20T01:11:25;7.10;;;5.00;;
1935;SDS011;969;49.892;10.896;2023-12-20T01:13:50;6.27;;;4.63;;
1935;SDS011;969;49.892;10.896;2023-12-20T01:16:16;8.80;;;4.97;;
1935;SDS011;969;49.892;10.896;2023-12-20T01:18:42;6.73;;;4.73;;
1935;SDS011;969;49.892;10.896;2023-12-20T01:21:07;9.50;;;5.40;;
1935;SDS011;969;49.892;10.896;2023-12-20T01:23:33;6.80;;;4.73;;
1935;SDS011;969;49.892;10.896;2023-12-20T01:25:58;7.93;;;4.87;;
1935;SDS011;969;49.892;10.896;2023-12-20T01:28:27;5.13;;;3.63;;
1935;SDS011;969;49.892;10.896;2023-12-20T01:30:53;5.17;;;4.50;;
1935;SDS011;969;49.892;10.896;2023-12-20T01:33:19;6.37;;;4.40;;
1935;SDS011;969;49.892;10.896;2023-12-20T01:35:44;6.77;;;4.83;;
1935;SDS011;969;49.892;10.896;2023-12-20T01:38:10;8.07;;;4.87;;
1935;SDS011;969;49.892;10.896;2023-12-20T01:40:35;6.27;;;4.30;;
1935;SDS011;969;49.892;10.896;2023-12-20T01:43:02;7.63;;;4.70;;
1935;SDS011;969;49.892;10.896;2023-12-20T01:45:31;5.53;;;4.00;;
1935;SDS011;969;49.892;10.896;2023-12-20T01:47:57;5.10;;;3.97;;
1935;SDS011;969;49.892;10.896;2023-12-20T01:50:25;6.63;;;4.37;;
1935;SDS011;969;49.892;10.896;2023-12-20T01:52:51;5.70;;;4.53;;
1935;SDS011;969;49.892;10.896;2023-12-20T01:55:20;4.47;;;3.83;;
1935;SDS011;969;49.892;10.896;2023-12-20T01:57:46;5.43;;;4.20;;
1935;SDS011;969;49.892;10.896;2023-12-20T02:00:12;5.30;;;3.87;;
1935;SDS011;969;49.892;10.896;2023-12-20T02:02:39;6.50;;;4.80;;
1935;SDS011;969;49.892;10.896;2023-12-20T02:05:10;6.17;;;4.40;;
1935;SDS011;969;49.892;10.896;2023-12-20T02:07:36;7.97;;;5.30;;
1935;SDS011;969;49.892;10.896;2023-12-20T02:10:02;5.47;;;4.13;;
1935;SDS011;969;49.892;10.896;2023-12-20T02:12:29;7.77;;;4.67;;
1935;SDS011;969;49.892;10.896;2023-12-20T02:14:55;6.10;;;5.50;;
1935;SDS011;969;49.892;10.896;2023-12-20T02:17:20;5.80;;;5.07;;
1935;SDS011;969;49.892;10.896;2023-12-20T02:19:48;5.80;;;4.10;;
1935;SDS011;969;49.892;10.896;2023-12-20T02:22:14;5.97;;;4.47;;
1935;SDS011;969;49.892;10.896;2023-12-20T02:24:40;5.00;;;4.00;;
1935;SDS011;969;49.892;10.896;2023-12-20T02:27:06;6.93;;;4.40;;
1935;SDS011;969;49.892;10.896;2023-12-20T02:29:33;7.53;;;4.57;;
1935;SDS011;969;49.892;10.896;2023-12-20T02:31:59;5.47;;;4.20;;
1935;SDS011;969;49.892;10.896;2023-12-20T02:34:25;5.10;;;4.10;;
1935;SDS011;969;49.892;10.896;2023-12-20T02:36:50;7.07;;;4.57;;
1935;SDS011;969;49.892;10.896;2023-12-20T02:39:16;6.37;;;5.07;;
1935;SDS011;969;49.892;10.896;2023-12-20T02:41:42;5.77;;;4.10;;
1935;SDS011;969;49.892;10.896;2023-12-20T02:44:07;5.57;;;4.27;;
1935;SDS011;969;49.892;10.896;2023-12-20T02:46:33;6.10;;;4.23;;
1935;SDS011;969;49.892;10.896;2023-12-20T02:48:58;4.90;;;3.43;;
1935;SDS011;969;49.892;10.896;2023-12-20T02:51:24;4.17;;;3.50;;
1935;SDS011;969;49.892;10.896;2023-12-20T02:53:50;4.20;;;3.63;;
1935;SDS011;969;49.892;10.896;2023-12-20T02:56:15;3.97;;;3.10;;
1935;SDS011;969;49.892;10.896;2023-12-20T02:58:41;4.80;;;4.17;;
1935;SDS011;969;49.892;10.896;2023-12-20T03:01:06;5.77;;;4.43;;
1935;SDS011;969;49.892;10.896;2023-12-20T03:03:32;6.03;;;3.97;;
1935;SDS011;969;49.892;10.896;2023-12-20T03:05:58;5.13;;;4.00;;
1935;SDS011;969;49.892;10.896;2023-12-20T03:08:23;5.30;;;4.10;;
1935;SDS011;969;49.892;10.896;2023-12-20T03:10:49;5.83;;;4.50;;
1935;SDS011;969;49.892;10.896;2023-12-20T03:13:15;5.40;;;3.63;;
1935;SDS011;969;49.892;10.896;2023-12-20T03:15:40;5.53;;;3.90;;
1935;SDS011;969;49.892;10.896;2023-12-20T03:18:06;5.60;;;3.70;;
1935;SDS011;969;49.892;10.896;2023-12-20T03:20:31;6.77;;;4.23;;
1935;SDS011;969;49.892;10.896;2023-12-20T03:22:59;4.87;;;4.07;;
1935;SDS011;969;49.892;10.896;2023-12-20T03:25:25;5.70;;;3.90;;
1935;SDS011;969;49.892;10.896;2023-12-20T03:27:51;4.40;;;3.80;;
1935;SDS011;969;49.892;10.896;2023-12-20T03:30:17;5.07;;;4.47;;
1935;SDS011;969;49.892;10.896;2023-12-20T03:32:42;4.27;;;3.20;;
1935;SDS011;969;49.892;10.896;2023-12-20T03:35:08;4.20;;;3.23;;
1935;SDS011;969;49.892;10.896;2023-12-20T03:37:34;5.77;;;4.00;;
1935;SDS011;969;49.892;10.896;2023-12-20T03:40:00;5.23;;;3.70;;
1935;SDS011;969;49.892;10.896;2023-12-20T03:42:26;4.83;;;3.20;;
1935;SDS011;969;49.892;10.896;2023-12-20T03:44:51;5.50;;;3.73;;
1935;SDS011;969;49.892;10.896;2023-12-20T03:47:17;4.47;;;3.47;;
1935;SDS011;969;49.892;10.896;2023-12-20T03:49:42;4.40;;;3.47;;
1935;SDS011;969;49.892;10.896;2023-12-20T03:52:08;3.70;;;3.20;;
1935;SDS011;969;49.892;10.896;2023-12-20T03:54:34;5.23;;;4.17;;
1935;SDS011;969;49.892;10.896;2023-12-20T03:57:00;4.10;;;3.13;;
1935;SDS011;969;49.892;10.896;2023-12-20T03:59:26;5.30;;;3.33;;
1935;SDS011;969;49.892;10.896;2023-12-20T04:01:52;5.50;;;3.53;;
1935;SDS011;969;49.892;10.896;2023-12-20T04:04:17;5.17;;;3.70;;
1935;SDS011;969;49.892;10.896;2023-12-20T04:06:43;4.23;;;3.07;;
1935;SDS011;969;49.892;10.896;2023-12-20T04:09:09;4.63;;;3.03;;
1935;SDS011;969;49.892;10.896;2023-12-20T04:11:35;6.33;;;3.60;;
1935;SDS011;969;49.892;10.896;2023-12-20T04:14:01;5.50;;;3.47;;
1935;SDS011;969;49.892;10.896;2023-12-20T04:16:27;4.50;;;3.63;;
1935;SDS011;969;49.892;10.896;2023-12-20T04:18:52;4.60;;;3.40;;
1935;SDS011;969;49.892;10.896;2023-12-20T04:21:18;5.00;;;3.43;;
1935;SDS011;969;49.892;10.896;2023-12-20T04:23:43;4.70;;;3.50;;
1935;SDS011;969;49.892;10.896;2023-12-20T04:26:10;4.80;;;3.20;;
1935;SDS011;969;49.892;10.896;2023-12-20T04:28:35;4.83;;;2.90;;
1935;SDS011;969;49.892;10.896;2023-12-20T04:31:01;4.40;;;3.30;;
1935;SDS011;969;49.892;10.896;2023-12-20T04:33:27;4.60;;;3.17;;
1935;SDS011;969;49.892;10.896;2023-12-20T04:35:52;4.80;;;3.83;;
1935;SDS011;969;49.892;10.896;2023-12-20T04:38:18;5.13;;;3.87;;
1935;SDS011;969;49.892;10.896;2023-12-20T04:40:43;4.50;;;3.50;;
1935;SDS011;969;49.892;10.896;2023-12-20T04:43:09;4.27;;;3.40;;
1935;SDS011;969;49.892;10.896;2023-12-20T04:45:35;4.97;;;3.20;;
1935;SDS011;969;49.892;10.896;2023-12-20T04:48:01;4.80;;;3.20;;
1935;SDS011;969;49.892;10.896;2023-12-20T04:50:27;3.40;;;3.07;;
1935;SDS011;969;49.892;10.896;2023-12-20T04:52:53;5.40;;;3.50;;
1935;SDS011;969;49.892;10.896;2023-12-20T04:55:19;3.70;;;2.90;;
1935;SDS011;969;49.892;10.896;2023-12-20T04:57:45;5.00;;;3.13;;
1935;SDS011;969;49.892;10.896;2023-12-20T05:00:10;3.53;;;2.90;;
1935;SDS011;969;49.892;10.896;2023-12-20T05:02:37;3.23;;;2.90;;
1935;SDS011;969;49.892;10.896;2023-12-20T05:05:02;3.23;;;2.90;;
1935;SDS011;969;49.892;10.896;2023-12-20T05:07:28;7.20;;;2.87;;
1935;SDS011;969;49.892;10.896;2023-12-20T05:09:54;3.80;;;3.00;;
1935;SDS011;969;49.892;10.896;2023-12-20T05:12:19;4.70;;;3.30;;
1935;SDS011;969;49.892;10.896;2023-12-20T05:14:45;3.87;;;3.03;;
1935;SDS011;969;49.892;10.896;2023-12-20T05:17:11;4.37;;;3.07;;
1935;SDS011;969;49.892;10.896;2023-12-20T05:19:37;4.07;;;3.30;;
1935;SDS011;969;49.892;10.896;2023-12-20T05:22:02;4.70;;;3.10;;
1935;SDS011;969;49.892;10.896;2023-12-20T05:24:28;4.77;;;3.30;;
1935;SDS011;969;49.892;10.896;2023-12-20T05:26:54;5.13;;;3.60;;
1935;SDS011;969;49.892;10.896;2023-12-20T05:29:20;4.93;;;3.03;;
1935;SDS011;969;49.892;10.896;2023-12-20T05:31:45;4.10;;;2.90;;
1935;SDS011;969;49.892;10.896;2023-12-20T05:34:11;3.70;;;3.23;;
1935;SDS011;969;49.892;10.896;2023-12-20T05:36:37;4.23;;;3.00;;
1935;SDS011;969;49.892;10.896;2023-12-20T05:39:03;4.13;;;3.10;;
1935;SDS011;969;49.892;10.896;2023-12-20T05:41:30;3.97;;;3.17;;
1935;SDS011;969;49.892;10.896;2023-12-20T05:43:56;4.47;;;3.40;;
1935;SDS011;969;49.892;10.896;2023-12-20T05:46:23;4.60;;;2.60;;
1935;SDS011;969;49.892;10.896;2023-12-20T05:48:49;4.27;;;3.03;;
1935;SDS011;969;49.892;10.896;2023-12-20T05:51:14;3.93;;;2.83;;
1935;SDS011;969;49.892;10.896;2023-12-20T05:53:40;3.90;;;3.20;;
1935;SDS011;969;49.892;10.896;2023-12-20T05:56:06;3.90;;;2.80;;
1935;SDS011;969;49.892;10.896;2023-12-20T05:58:32;3.23;;;2.80;;
1935;SDS011;969;49.892;10.896;2023-12-20T06:00:58;3.93;;;3.23;;
1935;SDS011;969;49.892;10.896;2023-12-20T06:03:23;2.90;;;2.57;;
1935;SDS011;969;49.892;10.896;2023-12-20T06:05:49;3.80;;;2.53;;
1935;SDS011;969;49.892;10.896;2023-12-20T06:08:14;3.73;;;2.80;;
1935;SDS011;969;49.892;10.896;2023-12-20T06:10:40;2.90;;;2.40;;
1935;SDS011;969;49.892;10.896;2023-12-20T06:13:05;3.63;;;2.63;;
1935;SDS011;969;49.892;10.896;2023-12-20T06:15:32;5.03;;;2.30;;
1935;SDS011;969;49.892;10.896;2023-12-20T06:17:58;4.47;;;2.53;;
1935;SDS011;969;49.892;10.896;2023-12-20T06:20:23;3.20;;;2.27;;
1935;SDS011;969;49.892;10.896;2023-12-20T06:22:49;3.50;;;2.73;;
1935;SDS011;969;49.892;10.896;2023-12-20T06:25:15;3.47;;;3.17;;
1935;SDS011;969;49.892;10.896;2023-12-20T06:27:41;2.57;;;2.37;;
1935;SDS011;969;49.892;10.896;2023-12-20T06:30:07;2.73;;;2.27;;
1935;SDS011;969;49.892;10.896;2023-12-20T06:32:36;3.13;;;2.43;;
1935;SDS011;969;49.892;10.896;2023-12-20T06:35:02;3.70;;;2.67;;
1935;SDS011;969;49.892;10.896;2023-12-20T06:37:29;3.50;;;2.57;;
1935;SDS011;969;49.892;10.896;2023-12-20T06:39:55;3.60;;;2.60;;
1935;SDS011;969;49.892;10.896;2023-12-20T06:42:21;4.17;;;2.37;;
1935;SDS011;969;49.892;10.896;2023-12-20T06:44:47;2.33;;;2.07;;
1935;SDS011;969;49.892;10.896;2023-12-20T06:47:13;3.50;;;2.10;;
1935;SDS011;969;49.892;10.896;2023-12-20T06:49:39;2.30;;;2.00;;
1935;SDS011;969;49.892;10.896;2023-12-20T06:52:05;3.43;;;2.50;;
1935;SDS011;969;49.892;10.896;2023-12-20T06:54:31;2.80;;;2.10;;
1935;SDS011;969;49.892;10.896;2023-12-20T06:56:56;3.60;;;2.77;;
1935;SDS011;969;49.892;10.896;2023-12-20T06:59:22;2.97;;;2.00;;
1935;SDS011;969;49.892;10.896;2023-12-20T07:01:48;3.40;;;2.50;;
1935;SDS011;969;49.892;10.896;2023-12-20T07:04:15;2.70;;;2.17;;
1935;SDS011;969;49.892;10.896;2023-12-20T07:06:41;3.63;;;2.40;;
1935;SDS011;969;49.892;10.896;2023-12-20T07:09:07;3.00;;;2.23;;
1935;SDS011;969;49.892;10.896;2023-12-20T07:11:32;3.13;;;2.20;;
1935;SDS011;969;49.892;10.896;2023-12-20T07:13:58;4.30;;;2.80;;
1935;SDS011;969;49.892;10.896;2023-12-20T07:16:23;3.90;;;2.30;;
1935;SDS011;969;49.892;10.896;2023-12-20T07:18:49;3.57;;;2.73;;
1935;SDS011;969;49.892;10.896;2023-12-20T07:21:15;2.70;;;2.10;;
1935;SDS011;969;49.892;10.896;2023-12-20T07:23:40;3.97;;;2.40;;
1935;SDS011;969;49.892;10.896;2023-12-20T07:26:06;3.20;;;2.50;;
1935;SDS011;969;49.892;10.896;2023-12-20T07:28:32;2.10;;;1.80;;
1935;SDS011;969;49.892;10.896;2023-12-20T07:30:58;4.17;;;2.60;;
1935;SDS011;969;49.892;10.896;2023-12-20T07:33:23;3.80;;;2.27;;
1935;SDS011;969;49.892;10.896;2023-12-20T07:35:49;3.37;;;2.20;;
1935;SDS011;969;49.892;10.896;2023-12-20T07:38:16;3.30;;;2.37;;
1935;SDS011;969;49.892;10.896;2023-12-20T07:40:42;4.10;;;2.30;;
1935;SDS011;969;49.892;10.896;2023-12-20T07:43:07;3.17;;;2.87;;
1935;SDS011;969;49.892;10.896;2023-12-20T07:45:33;2.33;;;1.90;;
1935;SDS011;969;49.892;10.896;2023-12-20T07:47:59;2.87;;;2.40;;
1935;SDS011;969;49.892;10.896;2023-12-20T07:50:25;3.77;;;2.53;;
1935;SDS011;969;49.892;10.896;2023-12-20T07:52:51;4.67;;;2.47;;
1935;SDS011;969;49.892;10.896;2023-12-20T07:55:16;3.00;;;2.40;;
1935;SDS011;969;49.892;10.896;2023-12-20T07:57:42;2.50;;;2.00;;
1935;SDS011;969;49.892;10.896;2023-12-20T08:00:08;3.03;;;2.20;;
1935;SDS011;969;49.892;10.896;2023-12-20T08:02:34;2.97;;;2.20;;
1935;SDS011;969;49.892;10.896;2023-12-20T08:04:59;4.10;;;2.80;;
1935;SDS011;969;49.892;10.896;2023-12-20T08:07:25;3.10;;;2.40;;
1935;SDS011;969;49.892;10.896;2023-12-20T08:09:51;4.80;;;2.40;;
1935;SDS011;969;49.892;10.896;2023-12-20T08:12:16;2.60;;;2.17;;
1935;SDS011;969;49.892;10.896;2023-12-20T08:14:42;3.57;;;2.37;;
1935;SDS011;969;49.892;10.896;2023-12-20T08:17:08;2.77;;;2.00;;
1935;SDS011;969;49.892;10.896;2023-12-20T08:19:33;3.30;;;2.60;;
1935;SDS011;969;49.892;10.896;2023-12-20T08:21:59;2.60;;;2.00;;
1935;SDS011;969;49.892;10.896;2023-12-20T08:24:24;3.23;;;2.17;;
1935;SDS011;969;49.892;10.896;2023-12-20T08:26:50;2.87;;;1.90;;
1935;SDS011;969;49.892;10.896;2023-12-20T08:29:15;3.00;;;2.27;;
1935;SDS011;969;49.892;10.896;2023-12-20T08:31:41;2.63;;;2.20;;
1935;SDS011;969;49.892;10.896;2023-12-20T08:34:06;4.27;;;2.30;;
1935;SDS011;969;49.892;10.896;2023-12-20T08:36:32;3.57;;;2.40;;
1935;SDS011;969;49.892;10.896;2023-12-20T08:38:58;3.00;;;2.13;;
1935;SDS011;969;49.892;10.896;2023-12-20T08:41:25;2.10;;;1.90;;
1935;SDS011;969;49.892;10.896;2023-12-20T08:43:51;2.80;;;2.30;;
1935;SDS011;969;49.892;10.896;2023-12-20T08:46:16;3.10;;;2.10;;
1935;SDS011;969;49.892;10.896;2023-12-20T08:48:42;3.30;;;2.20;;
1935;SDS011;969;49.892;10.896;2023-12-20T08:51:08;3.20;;;1.90;;
1935;SDS011;969;49.892;10.896;2023-12-20T08:53:35;2.63;;;1.83;;
1935;SDS011;969;49.892;10.896;2023-12-20T08:56:00;3.60;;;1.87;;
1935;SDS011;969;49.892;10.896;2023-12-20T08:58:27;2.80;;;2.20;;
1935;SDS011;969;49.892;10.896;2023-12-20T09:00:53;2.13;;;1.80;;
1935;SDS011;969;49.892;10.896;2023-12-20T09:03:18;2.40;;;1.73;;
1935;SDS011;969;49.892;10.896;2023-12-20T09:05:44;2.60;;;1.93;;
1935;SDS011;969;49.892;10.896;2023-12-20T09:08:09;3.03;;;2.47;;
1935;SDS011;969;49.892;10.896;2023-12-20T09:10:35;2.60;;;2.00;;
1935;SDS011;969;49.892;10.896;2023-12-20T09:13:02;3.23;;;2.30;;
1935;SDS011;969;49.892;10.896;2023-12-20T09:15:29;2.60;;;2.07;;
1935;SDS011;969;49.892;10.896;2023-12-20T09:17:55;2.90;;;1.80;;
1935;SDS011;969;49.892;10.896;2023-12-20T09:20:21;2.30;;;1.80;;
1935;SDS011;969;49.892;10.896;2023-12-20T09:22:48;3.20;;;2.70;;
1935;SDS011;969;49.892;10.896;2023-12-20T09:25:14;2.20;;;1.77;;
1935;SDS011;969;49.892;10.896;2023-12-20T09:27:41;2.63;;;1.93;;
1935;SDS011;969;49.892;10.896;2023-12-20T09:30:06;3.30;;;1.93;;
1935;SDS011;969;49.892;10.896;2023-12-20T09:32:32;2.70;;;1.93;;
1935;SDS011;969;49.892;10.896;2023-12-20T09:34:58;2.53;;;2.10;;
1935;SDS011;969;49.892;10.896;2023-12-20T09:37:26;2.27;;;2.07;;
1935;SDS011;969;49.892;10.896;2023-12-20T09:39:52;2.57;;;1.70;;
1935;SDS011;969;49.892;10.896;2023-12-20T09:42:21;2.10;;;1.63;;
1935;SDS011;969;49.892;10.896;2023-12-20T09:44:58;4.17;;;2.63;;
1935;SDS011;969;49.892;10.896;2023-12-20T09:47:28;1.90;;;1.70;;
1935;SDS011;969;49.892;10.896;2023-12-20T09:49:54;2.20;;;1.67;;
1935;SDS011;969;49.892;10.896;2023-12-20T09:52:20;2.83;;;1.70;;
1935;SDS011;969;49.892;10.896;2023-12-20T09:54:48;2.33;;;2.03;;
1935;SDS011;969;49.892;10.896;2023-12-20T09:57:17;1.53;;;1.23;;
1935;SDS011;969;49.892;10.896;2023-12-20T09:59:43;2.47;;;1.93;;
1935;SDS011;969;49.892;10.896;2023-12-20T10:02:09;1.93;;;1.63;;
1935;SDS011;969;49.892;10.896;2023-12-20T10:04:43;2.33;;;1.77;;
1935;SDS011;969;49.892;10.896;2023-12-20T10:07:11;3.20;;;2.13;;
1935;SDS011;969;49.892;10.896;2023-12-20T10:09:37;2.27;;;2.00;;
1935;SDS011;969;49.892;10.896;2023-12-20T10:12:03;2.13;;;1.70;;
1935;SDS011;969;49.892;10.896;2023-12-20T10:14:30;2.73;;;1.77;;
1935;SDS011;969;49.892;10.896;2023-12-20T10:17:03;2.30;;;1.80;;
1935;SDS011;969;49.892;10.896;2023-12-20T10:19:29;2.67;;;2.07;;
1935;SDS011;969;49.892;10.896;2023-12-20T10:21:56;2.33;;;1.80;;
1935;SDS011;969;49.892;10.896;2023-12-20T10:24:24;2.57;;;2.00;;
1935;SDS011;969;49.892;10.896;2023-12-20T10:27:00;2.40;;;2.20;;
1935;SDS011;969;49.892;10.896;2023-12-20T10:29:33;2.27;;;1.57;;
1935;SDS011;969;49.892;10.896;2023-12-20T10:32:44;2.50;;;1.90;;
1935;SDS011;969;49.892;10.896;2023-12-20T10:34:52;4.20;;;1.77;;
1935;SDS011;969;49.892;10.896;2023-12-20T10:37:19;2.97;;;1.70;;
1935;SDS011;969;49.892;10.896;2023-12-20T10:39:47;2.77;;;2.00;;
1935;SDS011;969;49.892;10.896;2023-12-20T10:42:16;3.00;;;1.90;;
1935;SDS011;969;49.892;10.896;2023-12-20T10:44:44;2.43;;;2.03;;
1935;SDS011;969;49.892;10.896;2023-12-20T10:47:11;3.47;;;2.20;;
1935;SDS011;969;49.892;10.896;2023-12-20T10:49:38;3.87;;;2.30;;
1935;SDS011;969;49.892;10.896;2023-12-20T10:52:05;4.57;;;1.60;;
1935;SDS011;969;49.892;10.896;2023-12-20T10:54:31;2.00;;;1.70;;
1935;SDS011;969;49.892;10.896;2023-12-20T10:56:57;2.80;;;1.83;;
1935;SDS011;969;49.892;10.896;2023-12-20T10:59:23;2.03;;;1.60;;
1935;SDS011;969;49.892;10.896;2023-12-20T11:01:50;3.43;;;1.77;;
1935;SDS011;969;49.892;10.896;2023-12-20T11:04:25;2.67;;;1.80;;
1935;SDS011;969;49.892;10.896;2023-12-20T11:09:47;2.80;;;1.60;;
1935;SDS011;969;49.892;10.896;2023-12-20T11:12:28;3.67;;;1.73;;
1935;SDS011;969;49.892;10.896;2023-12-20T11:15:02;2.07;;;1.50;;
1935;SDS011;969;49.892;10.896;2023-12-20T11:17:29;2.13;;;1.67;;
1935;SDS011;969;49.892;10.896;2023-12-20T11:22:25;4.33;;;1.90;;
1935;SDS011;969;49.892;10.896;2023-12-20T11:24:53;1.73;;;1.50;;
1935;SDS011;969;49.892;10.896;2023-12-20T11:27:19;4.00;;;2.27;;
1935;SDS011;969;49.892;10.896;2023-12-20T11:29:51;3.03;;;2.20;;
1935;SDS011;969;49.892;10.896;2023-12-20T11:34:59;2.50;;;1.60;;
1935;SDS011;969;49.892;10.896;2023-12-20T11:37:41;2.10;;;1.60;;
1935;SDS011;969;49.892;10.896;2023-12-20T11:40:16;2.40;;;1.60;;
1935;SDS011;969;49.892;10.896;2023-12-20T11:42:43;2.20;;;1.83;;
1935;SDS011;969;49.892;10.896;2023-12-20T11:45:12;3.07;;;1.77;;
1935;SDS011;969;49.892;10.896;2023-12-20T11:47:42;2.60;;;1.70;;
1935;SDS011;969;49.892;10.896;2023-12-20T11:50:10;2.60;;;1.70;;
1935;SDS011;969;49.892;10.896;2023-12-20T11:52:36;2.60;;;1.63;;
1935;SDS011;969;49.892;10.896;2023-12-20T11:55:02;2.30;;;1.90;;
1935;SDS011;969;49.892;10.896;2023-12-20T11:57:28;2.33;;;1.80;;
1935;SDS011;969;49.892;10.896;2023-12-20T11:59:54;1.60;;;1.50;;
1935;SDS011;969;49.892;10.896;2023-12-20T12:02:21;2.90;;;1.77;;
1935;SDS011;969;49.892;10.896;2023-12-20T12:04:48;3.10;;;2.00;;
1935;SDS011;969;49.892;10.896;2023-12-20T12:07:13;2.60;;;1.73;;
1935;SDS011;969;49.892;10.896;2023-12-20T12:09:39;3.40;;;3.00;;
1935;SDS011;969;49.892;10.896;2023-12-20T12:12:05;10.70;;;5.03;;
1935;SDS011;969;49.892;10.896;2023-12-20T12:14:31;20.67;;;8.87;;
1935;SDS011;969;49.892;10.896;2023-12-20T12:16:57;22.43;;;11.40;;
1935;SDS011;969;49.892;10.896;2023-12-20T12:19:23;32.77;;;16.77;;
1935;SDS011;969;49.892;10.896;2023-12-20T12:21:50;46.90;;;18.13;;
1935;SDS011;969;49.892;10.896;2023-12-20T12:24:19;45.47;;;19.90;;
1935;SDS011;969;49.892;10.896;2023-12-20T12:26:50;54.17;;;23.80;;
1935;SDS011;969;49.892;10.896;2023-12-20T12:29:16;69.27;;;28.67;;
1935;SDS011;969;49.892;10.896;2023-12-20T12:31:42;66.80;;;27.00;;
1935;SDS011;969;49.892;10.896;2023-12-20T12:34:07;58.00;;;27.73;;
1935;SDS011;969;49.892;10.896;2023-12-20T12:36:34;77.57;;;29.40;;
1935;SDS011;969;49.892;10.896;2023-12-20T12:39:02;62.07;;;27.73;;
1935;SDS011;969;49.892;10.896;2023-12-20T12:41:29;63.60;;;30.77;;
1935;SDS011;969;49.892;10.896;2023-12-20T12:43:55;67.83;;;27.87;;
1935;SDS011;969;49.892;10.896;2023-12-20T12:46:20;66.90;;;30.07;;
1935;SDS011;969;49.892;10.896;2023-12-20T12:48:46;71.63;;;30.17;;
1935;SDS011;969;49.892;10.896;2023-12-20T12:51:12;81.97;;;30.57;;
1935;SDS011;969;49.892;10.896;2023-12-20T12:53:38;84.20;;;32.07;;
1935;SDS011;969;49.892;10.896;2023-12-20T12:56:04;77.00;;;32.73;;
1935;SDS011;969;49.892;10.896;2023-12-20T12:58:31;66.23;;;31.60;;
1935;SDS011;969;49.892;10.896;2023-12-20T13:00:57;76.40;;;35.50;;
1935;SDS011;969;49.892;10.896;2023-12-20T13:03:22;84.30;;;35.90;;
1935;SDS011;969;49.892;10.896;2023-12-20T13:05:49;87.37;;;33.83;;
1935;SDS011;969;49.892;10.896;2023-12-20T13:08:15;84.90;;;33.27;;
1935;SDS011;969;49.892;10.896;2023-12-20T13:10:40;78.67;;;32.93;;
1935;SDS011;969;49.892;10.896;2023-12-20T13:13:06;85.73;;;35.47;;
1935;SDS011;969;49.892;10.896;2023-12-20T13:15:32;76.67;;;34.37;;
1935;SDS011;969;49.892;10.896;2023-12-20T13:17:57;78.60;;;32.67;;
1935;SDS011;969;49.892;10.896;2023-12-20T13:20:23;68.00;;;32.37;;
1935;SDS011;969;49.892;10.896;2023-12-20T13:22:48;80.17;;;34.70;;
1935;SDS011;969;49.892;10.896;2023-12-20T13:25:14;72.57;;;31.83;;
1935;SDS011;969;49.892;10.896;2023-12-20T13:27:40;79.43;;;34.20;;
1935;SDS011;969;49.892;10.896;2023-12-20T13:30:06;70.67;;;32.10;;
1935;SDS011;969;49.892;10.896;2023-12-20T13:32:32;76.73;;;33.30;;
1935;SDS011;969;49.892;10.896;2023-12-20T13:34:58;63.97;;;33.13;;
1935;SDS011;969;49.892;10.896;2023-12-20T13:37:23;68.77;;;32.87;;
1935;SDS011;969;49.892;10.896;2023-12-20T13:39:49;70.33;;;31.10;;
1935;SDS011;969;49.892;10.896;2023-12-20T13:42:14;67.70;;;32.20;;
1935;SDS011;969;49.892;10.896;2023-12-20T13:44:40;65.83;;;31.10;;
1935;SDS011;969;49.892;10.896;2023-12-20T13:47:06;63.90;;;29.70;;
1935;SDS011;969;49.892;10.896;2023-12-20T13:49:31;64.07;;;31.50;;
1935;SDS011;969;49.892;10.896;2023-12-20T13:51:57;58.37;;;28.87;;
1935;SDS011;969;49.892;10.896;2023-12-20T13:54:23;59.97;;;28.33;;
1935;SDS011;969;49.892;10.896;2023-12-20T13:56:49;67.80;;;29.60;;
1935;SDS011;969;49.892;10.896;2023-12-20T13:59:15;55.47;;;28.70;;
1935;SDS011;969;49.892;10.896;2023-12-20T14:01:41;66.90;;;30.37;;
1935;SDS011;969;49.892;10.896;2023-12-20T14:04:06;58.87;;;29.87;;
1935;SDS011;969;49.892;10.896;2023-12-20T14:06:32;64.87;;;27.93;;
1935;SDS011;969;49.892;10.896;2023-12-20T14:08:58;63.10;;;28.80;;
1935;SDS011;969;49.892;10.896;2023-12-20T14:11:28;59.57;;;30.60;;
1935;SDS011;969;49.892;10.896;2023-12-20T14:13:53;56.77;;;29.33;;
1935;SDS011;969;49.892;10.896;2023-12-20T14:16:23;55.10;;;29.20;;
1935;SDS011;969;49.892;10.896;2023-12-20T14:18:49;60.53;;;27.20;;
1935;SDS011;969;49.892;10.896;2023-12-20T14:21:16;53.17;;;26.47;;
1935;SDS011;969;49.892;10.896;2023-12-20T14:23:42;48.43;;;27.50;;
1935;SDS011;969;49.892;10.896;2023-12-20T14:26:08;54.10;;;25.80;;
1935;SDS011;969;49.892;10.896;2023-12-20T14:28:40;51.57;;;26.33;;
1935;SDS011;969;49.892;10.896;2023-12-20T14:31:06;53.50;;;28.07;;
1935;SDS011;969;49.892;10.896;2023-12-20T14:33:32;42.87;;;25.50;;
1935;SDS011;969;49.892;10.896;2023-12-20T14:35:57;47.93;;;25.70;;
1935;SDS011;969;49.892;10.896;2023-12-20T14:38:23;54.90;;;27.07;;
1935;SDS011;969;49.892;10.896;2023-12-20T14:40:49;52.97;;;26.17;;
1935;SDS011;969;49.892;10.896;2023-12-20T14:43:15;48.47;;;26.03;;
1935;SDS011;969;49.892;10.896;2023-12-20T14:45:41;50.20;;;26.13;;
1935;SDS011;969;49.892;10.896;2023-12-20T14:48:07;49.80;;;26.17;;
1935;SDS011;969;49.892;10.896;2023-12-20T14:50:32;51.17;;;24.50;;
1935;SDS011;969;49.892;10.896;2023-12-20T14:52:58;49.17;;;25.47;;
1935;SDS011;969;49.892;10.896;2023-12-20T14:55:24;50.30;;;23.47;;
1935;SDS011;969;49.892;10.896;2023-12-20T14:57:52;46.10;;;23.83;;
1935;SDS011;969;49.892;10.896;2023-12-20T15:00:18;47.57;;;23.33;;
1935;SDS011;969;49.892;10.896;2023-12-20T15:02:44;48.40;;;23.73;;
1935;SDS011;969;49.892;10.896;2023-12-20T15:05:10;49.80;;;25.80;;
1935;SDS011;969;49.892;10.896;2023-12-20T15:07:36;45.43;;;23.50;;
1935;SDS011;969;49.892;10.896;2023-12-20T15:10:02;46.23;;;25.10;;
1935;SDS011;969;49.892;10.896;2023-12-20T15:12:28;45.07;;;23.30;;